createdAt,value
2018-05-13T00:00:44.526Z,96349.66
2018-05-13T00:03:12.005Z,96351.93
2018-05-13T00:05:39.509Z,96352.92
2018-05-13T00:08:06.994Z,96352.16
2018-05-13T00:10:34.464Z,96350.11
2018-05-13T00:13:02.111Z,96352.72
2018-05-13T00:15:32.205Z,96355.37
2018-05-13T00:17:59.862Z,96353.75
2018-05-13T00:20:27.366Z,96349.56
2018-05-13T00:22:54.857Z,96344.48
2018-05-13T00:25:22.715Z,96344.14
2018-05-13T00:27:50.202Z,96342.14
2018-05-13T00:30:17.672Z,96334.59
2018-05-13T00:32:45.165Z,96335.95
2018-05-13T00:35:12.652Z,96328.78
2018-05-13T00:37:40.257Z,96331.01
2018-05-13T00:40:07.735Z,96323.45
2018-05-13T00:42:37.193Z,96318.02
2018-05-13T00:45:04.682Z,96316.41
2018-05-13T00:47:32.162Z,96322.89
2018-05-13T00:49:59.645Z,96305.02
2018-05-13T00:52:27.109Z,96303.39
2018-05-13T00:54:55.234Z,96307.28
2018-05-13T00:57:22.856Z,96302.28
2018-05-13T00:59:50.895Z,96297.25
2018-05-13T01:02:18.389Z,96295.62
2018-05-13T01:04:45.901Z,96295.66
2018-05-13T01:07:13.387Z,96303.38
2018-05-13T01:09:41.007Z,96294.92
2018-05-13T01:12:08.484Z,96299.58
2018-05-13T01:14:35.960Z,96303.38
2018-05-13T01:17:03.443Z,96303.88
2018-05-13T01:19:30.938Z,96303.45
2018-05-13T01:21:58.405Z,96299.20
2018-05-13T01:24:25.906Z,96297.95
2018-05-13T01:26:53.379Z,96295.86
2018-05-13T01:29:20.897Z,96296.64
2018-05-13T01:31:48.402Z,96293.19
2018-05-13T01:34:15.881Z,96296.25
2018-05-13T01:36:43.372Z,96304.34
2018-05-13T01:39:10.848Z,96301.70
2018-05-13T01:41:38.346Z,96304.66
2018-05-13T01:44:05.840Z,96302.95
2018-05-13T01:46:33.365Z,96302.95
2018-05-13T01:49:00.893Z,96297.92
2018-05-13T01:51:28.382Z,96299.31
2018-05-13T01:53:55.836Z,96291.76
2018-05-13T01:56:23.309Z,96299.09
2018-05-13T01:58:50.788Z,96297.84
2018-05-13T02:01:18.273Z,96292.77
2018-05-13T02:03:45.757Z,96288.94
2018-05-13T02:06:13.234Z,96283.89
2018-05-13T02:08:40.747Z,96284.82
2018-05-13T02:11:08.204Z,96281.06
2018-05-13T02:13:35.706Z,96285.71
2018-05-13T02:16:03.208Z,96285.67
2018-05-13T02:18:30.694Z,96288.23
2018-05-13T02:20:58.683Z,96286.95
2018-05-13T02:23:26.189Z,96285.29
2018-05-13T02:25:53.651Z,96282.42
2018-05-13T02:28:21.123Z,96279.02
2018-05-13T02:30:48.614Z,96279.94
2018-05-13T02:33:16.089Z,96277.45
2018-05-13T02:35:43.613Z,96281.02
2018-05-13T02:38:11.093Z,96280.17
2018-05-13T02:40:38.575Z,96275.55
2018-05-13T02:43:06.031Z,96273.92
2018-05-13T02:45:33.540Z,96274.88
2018-05-13T02:48:01.000Z,96271.52
2018-05-13T02:50:28.693Z,96276.73
2018-05-13T02:52:56.280Z,96264.91
2018-05-13T02:55:23.787Z,96265.02
2018-05-13T02:57:51.269Z,96260.84
2018-05-13T03:00:18.742Z,96261.30
2018-05-13T03:02:46.246Z,96250.30
2018-05-13T03:05:13.709Z,96264.35
2018-05-13T03:07:41.233Z,96258.48
2018-05-13T03:10:08.716Z,96263.21
2018-05-13T03:12:36.253Z,96257.70
2018-05-13T03:15:03.716Z,96252.20
2018-05-13T03:17:31.264Z,96256.04
2018-05-13T03:19:58.748Z,96256.89
2018-05-13T03:22:26.219Z,96250.97
2018-05-13T03:24:53.705Z,96255.69
2018-05-13T03:27:21.167Z,96257.91
2018-05-13T03:29:48.658Z,96256.24
2018-05-13T03:32:16.504Z,96261.84
2018-05-13T03:34:43.997Z,96261.48
2018-05-13T03:37:11.482Z,96262.41
2018-05-13T03:39:38.992Z,96265.84
2018-05-13T03:42:06.466Z,96273.54
2018-05-13T03:44:33.945Z,96275.27
2018-05-13T03:47:01.441Z,96276.13
2018-05-13T03:49:28.968Z,96277.86
2018-05-13T03:51:56.472Z,96273.17
2018-05-13T03:54:23.932Z,96281.72
2018-05-13T03:56:51.446Z,96277.89
2018-05-13T03:59:18.970Z,96280.87
2018-05-13T04:01:46.448Z,96280.45
2018-05-13T04:04:13.934Z,96285.58
2018-05-13T04:06:41.418Z,96279.23
2018-05-13T04:09:20.725Z,96276.67
2018-05-13T04:12:00.186Z,96279.66
2018-05-13T04:14:39.445Z,96280.48
2018-05-13T04:17:06.934Z,96286.41
2018-05-13T04:19:34.436Z,96290.17
2018-05-13T04:22:01.930Z,96293.52
2018-05-13T04:24:29.421Z,96292.62
2018-05-13T04:26:56.904Z,96299.34
2018-05-13T04:29:24.408Z,96305.67
2018-05-13T04:31:51.955Z,96302.20
2018-05-13T04:34:19.454Z,96307.67
2018-05-13T04:36:46.957Z,96302.49
2018-05-13T04:39:14.540Z,96300.27
2018-05-13T04:41:42.012Z,96298.85
2018-05-13T04:44:09.540Z,96302.16
2018-05-13T04:46:37.030Z,96302.08
2018-05-13T04:49:04.514Z,96303.69
2018-05-13T04:51:32.020Z,96296.34
2018-05-13T04:53:59.532Z,96300.52
2018-05-13T04:56:27.783Z,96304.25
2018-05-13T04:58:55.263Z,96299.88
2018-05-13T05:01:22.779Z,96304.03
2018-05-13T05:03:50.266Z,96309.04
2018-05-13T05:06:17.740Z,96310.66
2018-05-13T05:08:45.393Z,96313.50
2018-05-13T05:11:12.883Z,96313.35
2018-05-13T05:13:40.409Z,96314.09
2018-05-13T05:16:07.960Z,96317.73
2018-05-13T05:18:35.588Z,96318.04
2018-05-13T05:21:03.062Z,96315.33
2018-05-13T05:23:30.557Z,96318.69
2018-05-13T05:25:58.049Z,96319.86
2018-05-13T05:28:25.575Z,96321.95
2018-05-13T05:30:53.179Z,96321.02
2018-05-13T05:33:20.665Z,96317.47
2018-05-13T05:35:48.336Z,96314.83
2018-05-13T05:38:15.846Z,96310.00
2018-05-13T05:40:43.326Z,96309.41
2018-05-13T05:43:10.818Z,96308.00
2018-05-13T05:45:38.324Z,96303.13
2018-05-13T05:48:05.815Z,96299.20
2018-05-13T05:50:33.300Z,96302.48
2018-05-13T05:53:00.826Z,96304.10
2018-05-13T05:55:28.342Z,96306.99
2018-05-13T05:57:55.829Z,96296.75
2018-05-13T06:00:23.527Z,96296.19
2018-05-13T06:02:51.123Z,96296.86
2018-05-13T06:05:18.594Z,96291.17
2018-05-13T06:07:46.083Z,96291.93
2018-05-13T06:10:13.552Z,96290.50
2018-05-13T06:12:41.056Z,96291.73
2018-05-13T06:15:08.524Z,96294.12
2018-05-13T06:17:36.002Z,96292.73
2018-05-13T06:20:03.515Z,96287.66
2018-05-13T06:22:31.014Z,96291.22
2018-05-13T06:24:59.371Z,96300.62
2018-05-13T06:27:26.864Z,96299.23
2018-05-13T06:29:54.376Z,96297.25
2018-05-13T06:32:21.852Z,96296.77
2018-05-13T06:34:49.366Z,96297.85
2018-05-13T06:37:16.908Z,96301.02
2018-05-13T06:39:44.459Z,96294.77
2018-05-13T06:42:11.908Z,96292.48
2018-05-13T06:44:39.394Z,96292.01
2018-05-13T06:47:06.924Z,96287.84
2018-05-13T06:49:34.401Z,96278.00
2018-05-13T06:52:01.899Z,96283.63
2018-05-13T06:54:29.386Z,96286.30
2018-05-13T06:56:56.872Z,96277.49
2018-05-13T06:59:24.438Z,96274.22
2018-05-13T07:01:51.965Z,96272.57
2018-05-13T07:04:19.613Z,96269.67
2018-05-13T07:06:47.084Z,96270.39
2018-05-13T07:09:14.586Z,96270.23
2018-05-13T07:11:42.077Z,96279.02
2018-05-13T07:14:09.575Z,96276.16
2018-05-13T07:16:37.060Z,96271.12
2018-05-13T07:19:04.571Z,96267.88
2018-05-13T07:21:32.057Z,96268.91
2018-05-13T07:23:59.562Z,96271.31
2018-05-13T07:26:27.038Z,96257.19
2018-05-13T07:28:54.509Z,96258.16
2018-05-13T07:31:22.020Z,96258.95
2018-05-13T07:33:49.506Z,96257.55
2018-05-13T07:36:17.060Z,96256.07
2018-05-13T07:38:44.537Z,96259.50
2018-05-13T07:41:12.033Z,96252.28
2018-05-13T07:43:39.498Z,96254.16
2018-05-13T07:46:07.000Z,96248.78
2018-05-13T07:48:34.480Z,96249.77
2018-05-13T07:51:02.000Z,96243.48
2018-05-13T07:53:29.469Z,96242.79
2018-05-13T07:55:56.949Z,96237.56
2018-05-13T07:58:24.404Z,96233.63
2018-05-13T08:00:51.905Z,96235.86
2018-05-13T08:03:19.410Z,96227.98
2018-05-13T08:05:46.875Z,96227.54
2018-05-13T08:08:14.357Z,96227.97
2018-05-13T08:10:41.840Z,96222.84
2018-05-13T08:13:09.337Z,96223.70
2018-05-13T08:15:36.803Z,96225.11
2018-05-13T08:18:04.301Z,96224.10
2018-05-13T08:20:31.800Z,96224.10
2018-05-13T08:22:59.296Z,96223.58
2018-05-13T08:25:26.771Z,96222.73
2018-05-13T08:27:54.321Z,96219.92
2018-05-13T08:30:21.738Z,96221.14
2018-05-13T08:32:49.238Z,96212.33
2018-05-13T08:35:16.733Z,96218.53
2018-05-13T08:37:44.191Z,96222.48
2018-05-13T08:40:11.712Z,96216.45
2018-05-13T08:42:39.176Z,96215.22
2018-05-13T08:45:06.663Z,96214.98
2018-05-13T08:47:34.147Z,96210.98
2018-05-13T08:50:01.631Z,96200.13
2018-05-13T08:52:29.129Z,96201.69
2018-05-13T08:54:56.623Z,96199.72
2018-05-13T08:57:24.121Z,96188.89
2018-05-13T08:59:51.578Z,96185.98
2018-05-13T09:02:19.066Z,96187.53
2018-05-13T09:04:46.575Z,96191.98
2018-05-13T09:07:14.085Z,96187.43
2018-05-13T09:09:41.569Z,96181.98
2018-05-13T09:12:09.063Z,96182.48
2018-05-13T09:14:36.592Z,96178.02
2018-05-13T09:17:04.074Z,96180.44
2018-05-13T09:19:31.571Z,96185.12
2018-05-13T09:21:59.061Z,96183.73
2018-05-13T09:24:26.566Z,96182.64
2018-05-13T09:26:54.023Z,96179.41
2018-05-13T09:29:21.537Z,96180.34
2018-05-13T09:31:49.016Z,96178.73
2018-05-13T09:34:16.723Z,96167.07
2018-05-13T09:36:44.191Z,96167.03
2018-05-13T09:39:11.690Z,96160.14
2018-05-13T09:41:39.159Z,96164.55
2018-05-13T09:44:06.645Z,96162.80
2018-05-13T09:46:34.126Z,96150.27
2018-05-13T09:49:01.608Z,96153.88
2018-05-13T09:51:29.095Z,96156.05
2018-05-13T09:53:56.549Z,96151.52
2018-05-13T09:56:24.047Z,96154.45
2018-05-13T09:58:51.527Z,96145.80
2018-05-13T10:01:19.021Z,96143.36
2018-05-13T10:03:46.512Z,96141.89
2018-05-13T10:06:13.967Z,96141.72
2018-05-13T10:08:41.475Z,96132.39
2018-05-13T10:11:08.942Z,96133.32
2018-05-13T10:13:36.437Z,96133.86
2018-05-13T10:16:03.909Z,96131.16
2018-05-13T10:18:31.410Z,96132.59
2018-05-13T10:20:58.920Z,96127.52
2018-05-13T10:23:26.529Z,96129.53
2018-05-13T10:25:54.309Z,96133.48
2018-05-13T10:28:21.789Z,96127.31
2018-05-13T10:30:49.265Z,96127.31
2018-05-13T10:33:16.759Z,96125.59
2018-05-13T10:35:44.244Z,96122.73
2018-05-13T10:38:11.730Z,96122.14
2018-05-13T10:40:39.221Z,96123.10
2018-05-13T10:43:06.694Z,96107.88
2018-05-13T10:45:34.193Z,96111.32
2018-05-13T10:48:01.675Z,96119.39
2018-05-13T10:50:29.151Z,96112.78
2018-05-13T10:52:56.649Z,96108.71
2018-05-13T10:55:24.099Z,96107.37
2018-05-13T10:57:51.622Z,96100.61
2018-05-13T11:00:19.064Z,96089.11
2018-05-13T11:02:46.562Z,96097.28
2018-05-13T11:05:14.039Z,96090.38
2018-05-13T11:07:41.527Z,96085.53
2018-05-13T11:10:09.087Z,96087.78
2018-05-13T11:12:36.526Z,96082.00
2018-05-13T11:15:04.017Z,96078.44
2018-05-13T11:17:31.513Z,96076.59
2018-05-13T11:19:58.999Z,96073.13
2018-05-13T11:22:26.477Z,96072.48
2018-05-13T11:24:53.979Z,96061.45
2018-05-13T11:27:21.446Z,96062.64
2018-05-13T11:29:48.948Z,96060.59
2018-05-13T11:32:16.422Z,96063.77
2018-05-13T11:34:43.931Z,96048.65
2018-05-13T11:37:11.416Z,96052.49
2018-05-13T11:39:38.909Z,96048.36
2018-05-13T11:42:06.381Z,96038.59
2018-05-13T11:44:33.896Z,96040.38
2018-05-13T11:47:01.354Z,96034.78
2018-05-13T11:49:28.842Z,96020.23
2018-05-13T11:51:56.347Z,96020.65
2018-05-13T11:54:23.810Z,96022.72
2018-05-13T11:56:51.462Z,96018.12
2018-05-13T11:59:18.915Z,96006.77
2018-05-13T12:01:47.521Z,96006.52
2018-05-13T12:04:15.001Z,96004.99
2018-05-13T12:06:42.480Z,96001.69
2018-05-13T12:09:09.942Z,96006.11
2018-05-13T12:11:37.449Z,95999.22
2018-05-13T12:14:04.916Z,95991.52
2018-05-13T12:16:32.367Z,95987.50
2018-05-13T12:18:59.868Z,95987.91
2018-05-13T12:21:27.342Z,95980.42
2018-05-13T12:23:54.838Z,95980.58
2018-05-13T12:26:22.310Z,95980.20
2018-05-13T12:28:49.828Z,95969.72
2018-05-13T12:31:17.298Z,95965.77
2018-05-13T12:33:44.795Z,95967.56
2018-05-13T12:36:12.260Z,95964.45
2018-05-13T12:38:39.758Z,95956.16
2018-05-13T12:41:07.226Z,95955.98
2018-05-13T12:43:34.759Z,95951.72
2018-05-13T12:46:02.263Z,95945.31
2018-05-13T12:48:29.731Z,95944.64
2018-05-13T12:50:57.237Z,95942.75
2018-05-13T12:53:24.708Z,95936.48
2018-05-13T12:55:52.338Z,95930.01
2018-05-13T12:58:19.892Z,95925.72
2018-05-13T13:00:47.326Z,95923.31
2018-05-13T13:03:14.805Z,95920.47
2018-05-13T13:05:42.350Z,95918.42
2018-05-13T13:08:09.856Z,95910.02
2018-05-13T13:10:37.360Z,95909.88
2018-05-13T13:13:04.917Z,95901.67
2018-05-13T13:15:32.345Z,95891.57
2018-05-13T13:17:59.846Z,95893.56
2018-05-13T13:20:27.337Z,95878.92
2018-05-13T13:22:54.818Z,95877.11
2018-05-13T13:25:22.290Z,95882.57
2018-05-13T13:27:49.811Z,95870.08
2018-05-13T13:30:17.806Z,95874.61
2018-05-13T13:32:45.259Z,95863.69
2018-05-13T13:35:12.724Z,95853.83
2018-05-13T13:37:40.231Z,95852.25
2018-05-13T13:40:07.719Z,95852.78
2018-05-13T13:42:35.192Z,95845.58
2018-05-13T13:45:02.922Z,95850.27
2018-05-13T13:47:30.391Z,95838.70
2018-05-13T13:49:57.908Z,95837.94
2018-05-13T13:52:25.400Z,95832.35
2018-05-13T13:54:52.880Z,95827.96
2018-05-13T13:57:20.338Z,95828.28
2018-05-13T13:59:47.835Z,95820.02
2018-05-13T14:02:15.360Z,95823.08
2018-05-13T14:04:42.858Z,95815.55
2018-05-13T14:07:10.320Z,95810.55
2018-05-13T14:09:37.786Z,95814.20
2018-05-13T14:12:05.285Z,95810.45
2018-05-13T14:14:32.764Z,95805.20
2018-05-13T14:17:00.265Z,95803.27
2018-05-13T14:19:27.733Z,95800.45
2018-05-13T14:21:55.300Z,95798.19
2018-05-13T14:24:22.796Z,95795.27
2018-05-13T14:26:50.322Z,95797.92
2018-05-13T14:29:17.849Z,95792.72
2018-05-13T14:31:45.281Z,95797.50
2018-05-13T14:34:12.757Z,95795.16
2018-05-13T14:36:40.254Z,95789.88
2018-05-13T14:39:12.125Z,95785.61
2018-05-13T14:41:35.641Z,95784.34
2018-05-13T14:44:03.567Z,95788.98
2018-05-13T14:46:31.790Z,95789.69
2018-05-13T14:48:59.301Z,95787.16
2018-05-13T14:51:27.065Z,95789.88
2018-05-13T14:53:55.076Z,95793.26
2018-05-13T14:56:22.875Z,95799.67
2018-05-13T14:58:50.382Z,95795.44
2018-05-13T15:01:17.906Z,95799.27
2018-05-13T15:03:45.885Z,95789.50
2018-05-13T15:06:13.717Z,95789.48
2018-05-13T15:08:41.414Z,95789.88
2018-05-13T15:11:08.981Z,95787.13
2018-05-13T15:13:36.845Z,95780.61
2018-05-13T15:16:04.508Z,95778.22
2018-05-13T15:18:32.362Z,95776.55
2018-05-13T15:20:59.949Z,95773.70
2018-05-13T15:23:27.460Z,95775.47
2018-05-13T15:25:55.217Z,95774.43
2018-05-13T15:28:22.738Z,95772.22
2018-05-13T15:30:50.259Z,95773.59
2018-05-13T15:33:17.934Z,95776.38
2018-05-13T15:35:45.457Z,95775.69
2018-05-13T15:38:13.271Z,95777.58
2018-05-13T15:40:40.747Z,95777.93
2018-05-13T15:43:08.472Z,95762.97
2018-05-13T15:45:35.911Z,95759.31
2018-05-13T15:48:03.836Z,95756.31
2018-05-13T15:50:31.321Z,95750.64
2018-05-13T15:52:59.420Z,95742.66
2018-05-13T15:55:27.198Z,95739.41
2018-05-13T15:57:55.355Z,95729.69
2018-05-13T16:00:22.875Z,95723.23
2018-05-13T16:02:50.806Z,95723.27
2018-05-13T16:05:18.855Z,95720.42
2018-05-13T16:07:46.783Z,95717.13
2018-05-13T16:10:14.254Z,95724.25
2018-05-13T16:12:41.729Z,95716.36
2018-05-13T16:15:09.248Z,95714.05
2018-05-13T16:17:37.128Z,95714.43
2018-05-13T16:20:04.645Z,95714.37
2018-05-13T16:22:32.169Z,95706.30
2018-05-13T16:24:59.675Z,95714.70
2018-05-13T16:27:27.172Z,95699.48
2018-05-13T16:29:54.812Z,95693.77
2018-05-13T16:32:22.295Z,95699.02
2018-05-13T16:34:50.075Z,95705.53
2018-05-13T16:37:17.578Z,95693.91
2018-05-13T16:39:45.062Z,95696.39
2018-05-13T16:42:13.080Z,95698.28
2018-05-13T16:44:41.178Z,95700.38
2018-05-13T16:47:08.893Z,95696.80
2018-05-13T16:49:36.400Z,95708.77
2018-05-13T16:52:03.973Z,95704.81
2018-05-13T16:54:31.455Z,95708.86
2018-05-13T16:56:58.953Z,95711.02
2018-05-13T16:59:26.434Z,95706.64
2018-05-13T17:01:53.909Z,95709.64
2018-05-13T17:04:21.410Z,95708.81
2018-05-13T17:06:48.910Z,95716.61
2018-05-13T17:09:16.542Z,95722.44
2018-05-13T17:11:43.917Z,95713.64
2018-05-13T17:14:11.373Z,95727.25
2018-05-13T17:16:38.885Z,95727.95
2018-05-13T17:19:06.352Z,95732.94
2018-05-13T17:21:33.849Z,95734.09
2018-05-13T17:24:01.329Z,95737.81
2018-05-13T17:26:28.783Z,95739.59
2018-05-13T17:28:56.291Z,95739.06
2018-05-13T17:31:23.779Z,95738.75
2018-05-13T17:33:51.287Z,95731.52
2018-05-13T17:36:18.785Z,95736.95
2018-05-13T17:38:46.303Z,95736.84
2018-05-13T17:41:13.812Z,95736.52
2018-05-13T17:43:41.526Z,95728.34
2018-05-13T17:46:09.024Z,95741.86
2018-05-13T17:48:36.521Z,95729.81
2018-05-13T17:51:04.166Z,95727.84
2018-05-13T17:53:31.668Z,95718.14
2018-05-13T17:55:59.383Z,95722.81
2018-05-13T17:58:26.883Z,95727.46
2018-05-13T18:00:54.461Z,95727.66
2018-05-13T18:03:22.077Z,95721.36
2018-05-13T18:05:49.344Z,95723.83
2018-05-13T18:08:16.843Z,95724.52
2018-05-13T18:10:44.330Z,95723.06
2018-05-13T18:13:11.856Z,95738.99
2018-05-13T18:15:39.328Z,95766.95
2018-05-13T18:18:06.837Z,95801.66
2018-05-13T18:20:34.336Z,95768.38
2018-05-13T18:23:01.859Z,95798.80
2018-05-13T18:25:29.345Z,95814.80
2018-05-13T18:27:56.865Z,95821.09
2018-05-13T18:30:24.342Z,95814.70
2018-05-13T18:32:51.844Z,95814.80
2018-05-13T18:35:19.354Z,95815.81
2018-05-13T18:37:46.844Z,95815.08
2018-05-13T18:40:14.380Z,95796.32
2018-05-13T18:42:41.932Z,95795.50
2018-05-13T18:45:09.469Z,95802.56
2018-05-13T18:47:37.014Z,95808.67
2018-05-13T18:50:04.555Z,95884.09
2018-05-13T18:52:32.064Z,95889.75
2018-05-13T18:54:59.652Z,95877.97
2018-05-13T18:57:27.162Z,95890.79
2018-05-13T18:59:54.704Z,95896.09
2018-05-13T19:02:22.221Z,95894.02
2018-05-13T19:04:49.692Z,95897.10
2018-05-13T19:07:17.225Z,95890.88
2018-05-13T19:09:44.708Z,95878.37
2018-05-13T19:12:12.335Z,95870.39
2018-05-13T19:14:39.891Z,95879.08
2018-05-13T19:17:07.410Z,95885.50
2018-05-13T19:19:36.053Z,95899.05
2018-05-13T19:22:03.591Z,95909.86
2018-05-13T19:24:31.102Z,95911.05
2018-05-13T19:26:58.631Z,95910.02
2018-05-13T19:29:26.153Z,95905.79
2018-05-13T19:31:53.627Z,95910.93
2018-05-13T19:34:21.186Z,95912.45
2018-05-13T19:36:48.768Z,95901.67
2018-05-13T19:39:16.286Z,95896.86
2018-05-13T19:41:43.784Z,95899.28
2018-05-13T19:44:11.289Z,95902.09
2018-05-13T19:46:38.777Z,95892.28
2018-05-13T19:49:06.311Z,95892.36
2018-05-13T19:51:33.807Z,95903.24
2018-05-13T19:54:01.303Z,95916.58
2018-05-13T19:56:28.836Z,95925.21
2018-05-13T19:58:56.313Z,95914.81
2018-05-13T20:01:24.057Z,95921.64
2018-05-13T20:03:51.618Z,95906.41
2018-05-13T20:06:19.099Z,95882.03
2018-05-13T20:08:46.667Z,95883.73
2018-05-13T20:11:14.129Z,95894.19
2018-05-13T20:13:41.701Z,95903.05
2018-05-13T20:16:09.172Z,95895.92
2018-05-13T20:18:36.705Z,95898.28
2018-05-13T20:21:04.221Z,95909.11
2018-05-13T20:23:31.720Z,95906.78
2018-05-13T20:25:59.210Z,95907.76
2018-05-13T20:28:26.721Z,95910.92
2018-05-13T20:30:54.202Z,95904.39
2018-05-13T20:33:21.699Z,95899.76
2018-05-13T20:35:49.203Z,95897.81
2018-05-13T20:38:16.710Z,95910.56
2018-05-13T20:40:44.327Z,95908.05
2018-05-13T20:43:11.800Z,95910.39
2018-05-13T20:45:39.292Z,95910.83
2018-05-13T20:48:06.766Z,95906.44
2018-05-13T20:50:34.256Z,95903.91
2018-05-13T20:53:01.743Z,95910.57
2018-05-13T20:55:29.233Z,95910.50
2018-05-13T20:57:56.813Z,95905.66
2018-05-13T21:00:24.233Z,95907.95
2018-05-13T21:02:51.711Z,95905.66
2018-05-13T21:05:19.295Z,95907.98
2018-05-13T21:07:46.723Z,95910.06
2018-05-13T21:10:14.206Z,95912.92
2018-05-13T21:12:41.726Z,95914.46
2018-05-13T21:15:09.210Z,95912.25
2018-05-13T21:17:36.709Z,95927.89
2018-05-13T21:20:04.184Z,95938.16
2018-05-13T21:22:31.655Z,95956.30
2018-05-13T21:24:59.143Z,95971.71
2018-05-13T21:27:26.615Z,95983.33
2018-05-13T21:29:54.086Z,95975.45
2018-05-13T21:32:21.541Z,95946.97
2018-05-13T21:34:49.017Z,95932.52
2018-05-13T21:37:16.492Z,95918.64
2018-05-13T21:39:44.022Z,95917.67
2018-05-13T21:42:11.476Z,95913.34
2018-05-13T21:44:38.970Z,95918.23
2018-05-13T21:47:06.476Z,95918.35
2018-05-13T21:49:33.920Z,95915.83
2018-05-13T21:52:01.415Z,95916.03
2018-05-13T21:54:29.064Z,95915.80
2018-05-13T21:56:56.486Z,95926.28
2018-05-13T21:59:23.960Z,95930.95
2018-05-13T22:01:51.510Z,95936.37
2018-05-13T22:04:18.975Z,95929.58
2018-05-13T22:06:46.512Z,95934.44
2018-05-13T22:09:13.987Z,95939.88
2018-05-13T22:11:41.535Z,95932.93
2018-05-13T22:14:09.055Z,95930.81
2018-05-13T22:16:36.508Z,95941.86
2018-05-13T22:19:04.023Z,95944.91
2018-05-13T22:21:31.480Z,95946.94
2018-05-13T22:23:58.974Z,95946.37
2018-05-13T22:26:26.449Z,95940.70
2018-05-13T22:28:53.954Z,95944.50
2018-05-13T22:31:21.445Z,95944.61
2018-05-13T22:33:48.945Z,95943.77
2018-05-13T22:36:16.418Z,95937.23
2018-05-13T22:38:43.885Z,95937.13
2018-05-13T22:41:11.378Z,95940.45
2018-05-13T22:43:38.843Z,95934.03
2018-05-13T22:46:06.339Z,95923.02
2018-05-13T22:48:33.829Z,95923.94
2018-05-13T22:51:01.354Z,95919.88
2018-05-13T22:53:28.853Z,95923.05
2018-05-13T22:55:56.346Z,95919.20
2018-05-13T22:58:23.872Z,95914.56
2018-05-13T23:00:51.444Z,95911.56
2018-05-13T23:03:18.969Z,95912.19
2018-05-13T23:05:46.447Z,95914.92
2018-05-13T23:08:13.942Z,95911.61
2018-05-13T23:10:41.468Z,95923.46
2018-05-13T23:13:08.977Z,95916.58
2018-05-13T23:15:36.480Z,95913.95
2018-05-13T23:18:04.021Z,95916.45
2018-05-13T23:20:31.556Z,95914.63
2018-05-13T23:22:59.593Z,95912.38
2018-05-13T23:25:27.287Z,95917.63
2018-05-13T23:27:54.824Z,95913.63
2018-05-13T23:30:22.335Z,95914.17
2018-05-13T23:32:49.862Z,95920.86
2018-05-13T23:35:17.341Z,95922.36
2018-05-13T23:37:44.820Z,95928.59
2018-05-13T23:40:12.317Z,95920.00
2018-05-13T23:42:39.842Z,95925.20
2018-05-13T23:45:07.349Z,95926.53
2018-05-13T23:47:34.834Z,95928.36
2018-05-13T23:50:02.349Z,95920.72
2018-05-13T23:52:29.849Z,95921.20
2018-05-13T23:54:57.345Z,95922.00
2018-05-13T23:57:24.835Z,95917.42
2018-05-13T23:59:52.337Z,95920.78
